Startpagina
METAR-TAF:

METAR-TAF

Vliegvelden :

Internationale Luchthaven Baghdad

Bagdad, Irak

breedte: 33-15-45N, lengte: 44-14-04E, hoogte: 35 m

Actueel weer

Dit bericht is 38 minuten geleden gemaakt, om 03:30 UTC
Wind 5 kt uit het westen
Temperatuur 15°C
Vochtigheid 77%
Druk 998 hPa
Zicht 10 km of meer
Verspreide wolken op 3000 ft
Gebroken wolken op 3500 ft

METAR: ORBI 250330Z 26005KT 9999 SCT030 BKN035 15/11 Q0998 NOSIG

Tijdstip: 07:08 (04:08 UTC)

Verwachting

Dit bericht is 5 uur en het 8 minuten geleden gemaakt, om 23:00 UTC
Verwachting geldig van 25 om 00 UTC tot 25 om 24 UTC
Wind 20 kt uit het oostzuidoosten
Zicht: 8000 m
Geheel bewolkt op 3000 ft
Tijdelijke
van 25 om 00 UTC tot 25 om 10 UTC
Zicht: 6000 m
Weinig wolken op 2500 ft, Cumulonimbus.
Wijzigt naar
van 25 om 13 UTC tot 25 om 15 UTC
Wind 3 kt uit variabele richting
Verspreide wolken op 3000 ft
Verspreide wolken op 9000 ft

TAF: ORBI 242300Z 2500/2524 12020KT 8000 OVC030 TEMPO 2500/2510 G30KT 6000 TSSHRA FEW025CB BECMG 2513/2515 VRB03KT SCT030 SCT090

Waarnemingen en weersverwachtingen van meer dan 4000 vliegvelden (METAR en TAF).

De beschikbare stations zijn de gele en rode punten op de kaart.

Ga met uw muis naar het station om de naam te zien.

Klik dan om waarnemingen en weersverwachtingen te zien.

kaart wijzigen: klik op de groene knoppen met een zwart kruis om in te zoomen, op de groene knop met een streepje om uit te zoomen of op de groene pijlen voor aangrenzende kaarten.


METAR-TAF: